sensor_id;sensor_type;location;lat;lon;timestamp;temperature;humidity
13113;DHT22;6622;49.752;6.100;2022-11-10T00:00:28;7.60;99.90
13113;DHT22;6622;49.752;6.100;2022-11-10T00:02:54;7.60;99.90
13113;DHT22;6622;49.752;6.100;2022-11-10T00:05:21;7.60;99.90
13113;DHT22;6622;49.752;6.100;2022-11-10T00:07:48;7.40;99.90
13113;DHT22;6622;49.752;6.100;2022-11-10T00:10:15;7.40;99.90
13113;DHT22;6622;49.752;6.100;2022-11-10T00:12:43;7.30;99.90
13113;DHT22;6622;49.752;6.100;2022-11-10T00:15:09;7.30;99.90
13113;DHT22;6622;49.752;6.100;2022-11-10T00:17:54;7.20;99.90
13113;DHT22;6622;49.752;6.100;2022-11-10T00:20:20;7.10;99.90
13113;DHT22;6622;49.752;6.100;2022-11-10T00:22:47;6.90;99.90
13113;DHT22;6622;49.752;6.100;2022-11-10T00:25:14;7.00;99.90
13113;DHT22;6622;49.752;6.100;2022-11-10T00:27:40;7.00;99.90
13113;DHT22;6622;49.752;6.100;2022-11-10T00:30:08;7.00;99.90
13113;DHT22;6622;49.752;6.100;2022-11-10T00:32:34;7.00;99.90
13113;DHT22;6622;49.752;6.100;2022-11-10T00:35:01;6.80;99.90
13113;DHT22;6622;49.752;6.100;2022-11-10T00:37:28;6.70;99.90
13113;DHT22;6622;49.752;6.100;2022-11-10T00:39:54;6.70;99.90
13113;DHT22;6622;49.752;6.100;2022-11-10T00:42:21;6.70;99.90
13113;DHT22;6622;49.752;6.100;2022-11-10T00:44:48;6.70;99.90
13113;DHT22;6622;49.752;6.100;2022-11-10T00:47:14;6.80;99.90
13113;DHT22;6622;49.752;6.100;2022-11-10T00:49:41;6.70;99.90
13113;DHT22;6622;49.752;6.100;2022-11-10T00:52:07;6.60;99.90
13113;DHT22;6622;49.752;6.100;2022-11-10T00:54:34;6.60;99.90
13113;DHT22;6622;49.752;6.100;2022-11-10T00:57:01;6.60;99.90
13113;DHT22;6622;49.752;6.100;2022-11-10T00:59:28;6.70;99.90
13113;DHT22;6622;49.752;6.100;2022-11-10T01:01:55;6.60;99.90
13113;DHT22;6622;49.752;6.100;2022-11-10T01:04:21;6.60;99.90
13113;DHT22;6622;49.752;6.100;2022-11-10T01:06:49;6.70;99.90
13113;DHT22;6622;49.752;6.100;2022-11-10T01:09:15;6.70;99.90
13113;DHT22;6622;49.752;6.100;2022-11-10T01:11:43;6.40;99.90
13113;DHT22;6622;49.752;6.100;2022-11-10T01:14:09;6.40;99.90
13113;DHT22;6622;49.752;6.100;2022-11-10T01:16:36;6.40;99.90
13113;DHT22;6622;49.752;6.100;2022-11-10T01:19:03;6.40;99.90
13113;DHT22;6622;49.752;6.100;2022-11-10T01:21:29;6.30;99.90
13113;DHT22;6622;49.752;6.100;2022-11-10T01:23:56;6.30;99.90
13113;DHT22;6622;49.752;6.100;2022-11-10T01:26:22;6.40;99.90
13113;DHT22;6622;49.752;6.100;2022-11-10T01:28:49;6.50;99.90
13113;DHT22;6622;49.752;6.100;2022-11-10T01:31:17;6.50;99.90
13113;DHT22;6622;49.752;6.100;2022-11-10T01:33:42;6.50;99.90
13113;DHT22;6622;49.752;6.100;2022-11-10T01:36:09;6.50;99.90
13113;DHT22;6622;49.752;6.100;2022-11-10T01:38:36;6.60;99.90
13113;DHT22;6622;49.752;6.100;2022-11-10T01:41:03;6.60;99.90
13113;DHT22;6622;49.752;6.100;2022-11-10T01:43:29;6.60;99.90
13113;DHT22;6622;49.752;6.100;2022-11-10T01:46:02;6.50;99.90
13113;DHT22;6622;49.752;6.100;2022-11-10T01:48:43;6.50;99.90
13113;DHT22;6622;49.752;6.100;2022-11-10T01:53:47;6.40;99.90
13113;DHT22;6622;49.752;6.100;2022-11-10T01:56:12;6.30;99.90
13113;DHT22;6622;49.752;6.100;2022-11-10T01:58:39;6.40;99.90
13113;DHT22;6622;49.752;6.100;2022-11-10T02:01:08;6.40;99.90
13113;DHT22;6622;49.752;6.100;2022-11-10T02:06:07;6.30;99.90
13113;DHT22;6622;49.752;6.100;2022-11-10T02:08:34;6.30;99.90
13113;DHT22;6622;49.752;6.100;2022-11-10T02:11:00;6.30;99.90
13113;DHT22;6622;49.752;6.100;2022-11-10T02:13:27;6.20;99.90
13113;DHT22;6622;49.752;6.100;2022-11-10T02:15:53;6.20;99.90
13113;DHT22;6622;49.752;6.100;2022-11-10T02:18:21;6.20;99.90
13113;DHT22;6622;49.752;6.100;2022-11-10T02:20:47;6.20;99.90
13113;DHT22;6622;49.752;6.100;2022-11-10T02:25:56;6.10;99.90
13113;DHT22;6622;49.752;6.100;2022-11-10T02:28:22;6.10;99.90
13113;DHT22;6622;49.752;6.100;2022-11-10T02:30:49;6.10;99.90
13113;DHT22;6622;49.752;6.100;2022-11-10T02:33:15;6.00;99.90
13113;DHT22;6622;49.752;6.100;2022-11-10T02:35:45;6.00;99.90
13113;DHT22;6622;49.752;6.100;2022-11-10T02:38:11;5.90;99.90
13113;DHT22;6622;49.752;6.100;2022-11-10T02:40:38;5.80;99.90
13113;DHT22;6622;49.752;6.100;2022-11-10T02:43:05;5.80;99.90
13113;DHT22;6622;49.752;6.100;2022-11-10T02:45:31;5.90;99.90
13113;DHT22;6622;49.752;6.100;2022-11-10T02:47:58;5.80;99.90
13113;DHT22;6622;49.752;6.100;2022-11-10T02:50:25;5.70;99.90
13113;DHT22;6622;49.752;6.100;2022-11-10T02:52:52;5.80;99.90
13113;DHT22;6622;49.752;6.100;2022-11-10T02:55:18;5.70;99.90
13113;DHT22;6622;49.752;6.100;2022-11-10T02:57:45;5.70;99.90
13113;DHT22;6622;49.752;6.100;2022-11-10T03:00:11;5.70;99.90
13113;DHT22;6622;49.752;6.100;2022-11-10T03:02:38;5.70;99.90
13113;DHT22;6622;49.752;6.100;2022-11-10T03:05:05;5.70;99.90
13113;DHT22;6622;49.752;6.100;2022-11-10T03:07:31;5.60;99.90
13113;DHT22;6622;49.752;6.100;2022-11-10T03:09:58;5.70;99.90
13113;DHT22;6622;49.752;6.100;2022-11-10T03:12:25;5.60;99.90
13113;DHT22;6622;49.752;6.100;2022-11-10T03:14:52;5.60;99.90
13113;DHT22;6622;49.752;6.100;2022-11-10T03:17:19;5.60;99.90
13113;DHT22;6622;49.752;6.100;2022-11-10T03:19:45;5.50;99.90
13113;DHT22;6622;49.752;6.100;2022-11-10T03:22:13;5.50;99.90
13113;DHT22;6622;49.752;6.100;2022-11-10T03:24:39;5.50;99.90
13113;DHT22;6622;49.752;6.100;2022-11-10T03:27:06;5.50;99.90
13113;DHT22;6622;49.752;6.100;2022-11-10T03:29:33;5.50;99.90
13113;DHT22;6622;49.752;6.100;2022-11-10T03:32:00;5.50;99.90
13113;DHT22;6622;49.752;6.100;2022-11-10T03:34:26;5.40;99.90
13113;DHT22;6622;49.752;6.100;2022-11-10T03:36:54;5.40;99.90
13113;DHT22;6622;49.752;6.100;2022-11-10T03:39:20;5.40;99.90
13113;DHT22;6622;49.752;6.100;2022-11-10T03:41:47;5.40;99.90
13113;DHT22;6622;49.752;6.100;2022-11-10T03:44:14;5.40;99.90
13113;DHT22;6622;49.752;6.100;2022-11-10T03:46:41;5.40;99.90
13113;DHT22;6622;49.752;6.100;2022-11-10T03:49:08;5.30;99.90
13113;DHT22;6622;49.752;6.100;2022-11-10T03:51:35;5.30;99.90
13113;DHT22;6622;49.752;6.100;2022-11-10T03:54:02;5.30;99.90
13113;DHT22;6622;49.752;6.100;2022-11-10T03:56:29;5.30;99.90
13113;DHT22;6622;49.752;6.100;2022-11-10T03:58:56;5.30;99.90
13113;DHT22;6622;49.752;6.100;2022-11-10T04:01:22;5.40;99.90
13113;DHT22;6622;49.752;6.100;2022-11-10T04:03:49;5.50;99.90
13113;DHT22;6622;49.752;6.100;2022-11-10T04:06:16;5.60;99.90
13113;DHT22;6622;49.752;6.100;2022-11-10T04:09:00;5.70;99.90
13113;DHT22;6622;49.752;6.100;2022-11-10T04:11:28;5.70;99.90
13113;DHT22;6622;49.752;6.100;2022-11-10T04:14:12;5.60;99.90
13113;DHT22;6622;49.752;6.100;2022-11-10T04:16:56;5.60;99.90
13113;DHT22;6622;49.752;6.100;2022-11-10T04:19:24;5.60;99.90
13113;DHT22;6622;49.752;6.100;2022-11-10T04:21:50;5.50;99.90
13113;DHT22;6622;49.752;6.100;2022-11-10T04:24:17;5.50;99.90
13113;DHT22;6622;49.752;6.100;2022-11-10T04:26:44;5.50;99.90
13113;DHT22;6622;49.752;6.100;2022-11-10T04:29:10;5.60;99.90
13113;DHT22;6622;49.752;6.100;2022-11-10T04:31:38;5.50;99.90
13113;DHT22;6622;49.752;6.100;2022-11-10T04:34:04;5.40;99.90
13113;DHT22;6622;49.752;6.100;2022-11-10T04:36:31;5.30;99.90
13113;DHT22;6622;49.752;6.100;2022-11-10T04:38:57;5.20;99.90
13113;DHT22;6622;49.752;6.100;2022-11-10T04:41:24;5.20;99.90
13113;DHT22;6622;49.752;6.100;2022-11-10T04:43:51;5.20;99.90
13113;DHT22;6622;49.752;6.100;2022-11-10T04:46:31;5.10;99.90
13113;DHT22;6622;49.752;6.100;2022-11-10T04:48:57;5.10;99.90
13113;DHT22;6622;49.752;6.100;2022-11-10T04:51:27;5.10;99.90
13113;DHT22;6622;49.752;6.100;2022-11-10T04:53:50;5.20;99.90
13113;DHT22;6622;49.752;6.100;2022-11-10T04:56:18;5.10;99.90
13113;DHT22;6622;49.752;6.100;2022-11-10T04:58:44;5.10;99.90
13113;DHT22;6622;49.752;6.100;2022-11-10T05:01:11;5.20;99.90
13113;DHT22;6622;49.752;6.100;2022-11-10T05:03:38;5.00;99.90
13113;DHT22;6622;49.752;6.100;2022-11-10T05:06:04;5.00;99.90
13113;DHT22;6622;49.752;6.100;2022-11-10T05:08:31;5.10;99.90
13113;DHT22;6622;49.752;6.100;2022-11-10T05:10:58;5.20;99.90
13113;DHT22;6622;49.752;6.100;2022-11-10T05:13:25;5.20;99.90
13113;DHT22;6622;49.752;6.100;2022-11-10T05:15:52;5.20;99.90
13113;DHT22;6622;49.752;6.100;2022-11-10T05:18:19;5.30;99.90
13113;DHT22;6622;49.752;6.100;2022-11-10T05:20:46;5.30;99.90
13113;DHT22;6622;49.752;6.100;2022-11-10T05:23:12;5.40;99.90
13113;DHT22;6622;49.752;6.100;2022-11-10T05:25:57;5.40;99.90
13113;DHT22;6622;49.752;6.100;2022-11-10T05:28:24;5.50;99.90
13113;DHT22;6622;49.752;6.100;2022-11-10T05:30:50;5.50;99.90
13113;DHT22;6622;49.752;6.100;2022-11-10T05:33:17;5.40;99.90
13113;DHT22;6622;49.752;6.100;2022-11-10T05:35:44;5.50;99.90
13113;DHT22;6622;49.752;6.100;2022-11-10T05:38:11;5.40;99.90
13113;DHT22;6622;49.752;6.100;2022-11-10T05:40:37;5.50;99.90
13113;DHT22;6622;49.752;6.100;2022-11-10T05:43:05;5.50;99.90
13113;DHT22;6622;49.752;6.100;2022-11-10T05:45:31;5.50;99.90
13113;DHT22;6622;49.752;6.100;2022-11-10T05:47:58;5.60;99.90
13113;DHT22;6622;49.752;6.100;2022-11-10T05:50:25;5.60;99.90
13113;DHT22;6622;49.752;6.100;2022-11-10T05:52:52;5.60;99.90
13113;DHT22;6622;49.752;6.100;2022-11-10T05:55:22;5.70;99.90
13113;DHT22;6622;49.752;6.100;2022-11-10T05:57:46;5.70;99.90
13113;DHT22;6622;49.752;6.100;2022-11-10T06:00:13;5.70;99.90
13113;DHT22;6622;49.752;6.100;2022-11-10T06:02:39;5.70;99.90
13113;DHT22;6622;49.752;6.100;2022-11-10T06:05:06;5.70;99.90
13113;DHT22;6622;49.752;6.100;2022-11-10T06:07:33;5.80;99.90
13113;DHT22;6622;49.752;6.100;2022-11-10T06:09:59;5.90;99.90
13113;DHT22;6622;49.752;6.100;2022-11-10T06:12:26;5.90;99.90
13113;DHT22;6622;49.752;6.100;2022-11-10T06:14:53;6.00;99.90
13113;DHT22;6622;49.752;6.100;2022-11-10T06:17:19;6.10;99.90
13113;DHT22;6622;49.752;6.100;2022-11-10T06:19:46;6.10;99.90
13113;DHT22;6622;49.752;6.100;2022-11-10T06:22:12;6.10;99.90
13113;DHT22;6622;49.752;6.100;2022-11-10T06:24:39;6.10;99.90
13113;DHT22;6622;49.752;6.100;2022-11-10T06:27:06;6.10;99.90
13113;DHT22;6622;49.752;6.100;2022-11-10T06:29:32;6.10;99.90
13113;DHT22;6622;49.752;6.100;2022-11-10T06:31:59;6.20;99.90
13113;DHT22;6622;49.752;6.100;2022-11-10T06:34:26;6.20;99.90
13113;DHT22;6622;49.752;6.100;2022-11-10T06:36:52;6.30;99.90
13113;DHT22;6622;49.752;6.100;2022-11-10T06:39:20;6.30;99.90
13113;DHT22;6622;49.752;6.100;2022-11-10T06:41:46;6.30;99.90
13113;DHT22;6622;49.752;6.100;2022-11-10T06:44:13;6.30;99.90
13113;DHT22;6622;49.752;6.100;2022-11-10T06:46:40;6.40;99.90
13113;DHT22;6622;49.752;6.100;2022-11-10T06:49:07;6.40;99.90
13113;DHT22;6622;49.752;6.100;2022-11-10T06:51:33;6.40;99.90
13113;DHT22;6622;49.752;6.100;2022-11-10T06:54:01;6.50;99.90
13113;DHT22;6622;49.752;6.100;2022-11-10T06:56:27;6.50;99.90
13113;DHT22;6622;49.752;6.100;2022-11-10T06:58:54;6.60;99.90
13113;DHT22;6622;49.752;6.100;2022-11-10T07:01:21;6.60;99.90
13113;DHT22;6622;49.752;6.100;2022-11-10T07:03:48;6.60;99.90
13113;DHT22;6622;49.752;6.100;2022-11-10T07:06:15;6.60;99.90
13113;DHT22;6622;49.752;6.100;2022-11-10T07:08:42;6.70;99.90
13113;DHT22;6622;49.752;6.100;2022-11-10T07:11:09;6.70;99.90
13113;DHT22;6622;49.752;6.100;2022-11-10T07:13:35;6.80;99.90
13113;DHT22;6622;49.752;6.100;2022-11-10T07:16:06;7.00;99.90
13113;DHT22;6622;49.752;6.100;2022-11-10T07:18:29;6.90;99.90
13113;DHT22;6622;49.752;6.100;2022-11-10T07:20:57;7.00;99.90
13113;DHT22;6622;49.752;6.100;2022-11-10T07:23:23;7.00;99.90
13113;DHT22;6622;49.752;6.100;2022-11-10T07:25:50;7.00;99.90
13113;DHT22;6622;49.752;6.100;2022-11-10T07:28:17;7.00;99.90
13113;DHT22;6622;49.752;6.100;2022-11-10T07:30:44;7.00;99.90
13113;DHT22;6622;49.752;6.100;2022-11-10T07:33:11;7.00;99.90
13113;DHT22;6622;49.752;6.100;2022-11-10T07:35:38;7.10;99.90
13113;DHT22;6622;49.752;6.100;2022-11-10T07:38:06;7.10;99.90
13113;DHT22;6622;49.752;6.100;2022-11-10T07:40:31;7.10;99.90
13113;DHT22;6622;49.752;6.100;2022-11-10T07:42:59;7.00;99.90
13113;DHT22;6622;49.752;6.100;2022-11-10T07:45:25;7.00;99.90
13113;DHT22;6622;49.752;6.100;2022-11-10T07:47:56;7.10;99.90
13113;DHT22;6622;49.752;6.100;2022-11-10T07:50:19;7.20;99.90
13113;DHT22;6622;49.752;6.100;2022-11-10T07:52:46;7.20;99.90
13113;DHT22;6622;49.752;6.100;2022-11-10T07:55:12;7.20;99.90
13113;DHT22;6622;49.752;6.100;2022-11-10T07:57:40;7.30;99.90
13113;DHT22;6622;49.752;6.100;2022-11-10T08:00:07;7.30;99.90
13113;DHT22;6622;49.752;6.100;2022-11-10T08:02:33;7.30;99.90
13113;DHT22;6622;49.752;6.100;2022-11-10T08:05:00;7.30;99.90
13113;DHT22;6622;49.752;6.100;2022-11-10T08:07:26;7.30;99.90
13113;DHT22;6622;49.752;6.100;2022-11-10T08:09:53;7.40;99.90
13113;DHT22;6622;49.752;6.100;2022-11-10T08:12:20;7.50;99.90
13113;DHT22;6622;49.752;6.100;2022-11-10T08:14:47;7.50;99.90
13113;DHT22;6622;49.752;6.100;2022-11-10T08:17:14;7.50;99.90
13113;DHT22;6622;49.752;6.100;2022-11-10T08:19:40;7.60;99.90
13113;DHT22;6622;49.752;6.100;2022-11-10T08:22:08;7.80;99.90
13113;DHT22;6622;49.752;6.100;2022-11-10T08:24:34;7.80;99.90
13113;DHT22;6622;49.752;6.100;2022-11-10T08:27:01;7.80;99.90
13113;DHT22;6622;49.752;6.100;2022-11-10T08:29:28;7.90;99.90
13113;DHT22;6622;49.752;6.100;2022-11-10T08:31:55;7.80;99.90
13113;DHT22;6622;49.752;6.100;2022-11-10T08:34:22;7.90;99.90
13113;DHT22;6622;49.752;6.100;2022-11-10T08:36:52;7.80;99.90
13113;DHT22;6622;49.752;6.100;2022-11-10T08:39:18;7.80;99.90
13113;DHT22;6622;49.752;6.100;2022-11-10T08:41:45;7.90;99.90
13113;DHT22;6622;49.752;6.100;2022-11-10T08:44:12;8.00;99.90
13113;DHT22;6622;49.752;6.100;2022-11-10T08:46:39;8.00;99.90
13113;DHT22;6622;49.752;6.100;2022-11-10T08:49:06;8.10;99.90
13113;DHT22;6622;49.752;6.100;2022-11-10T08:51:33;8.00;99.90
13113;DHT22;6622;49.752;6.100;2022-11-10T08:54:00;8.00;99.90
13113;DHT22;6622;49.752;6.100;2022-11-10T08:56:26;8.10;99.90
13113;DHT22;6622;49.752;6.100;2022-11-10T08:58:54;8.10;99.90
13113;DHT22;6622;49.752;6.100;2022-11-10T09:01:20;8.00;99.90
13113;DHT22;6622;49.752;6.100;2022-11-10T09:03:47;8.10;99.90
13113;DHT22;6622;49.752;6.100;2022-11-10T09:06:14;8.10;99.90
13113;DHT22;6622;49.752;6.100;2022-11-10T09:08:41;8.10;99.90
13113;DHT22;6622;49.752;6.100;2022-11-10T09:11:07;8.20;99.90
13113;DHT22;6622;49.752;6.100;2022-11-10T09:13:35;8.10;99.90
13113;DHT22;6622;49.752;6.100;2022-11-10T09:16:02;8.10;99.90
13113;DHT22;6622;49.752;6.100;2022-11-10T09:18:29;8.20;99.90
13113;DHT22;6622;49.752;6.100;2022-11-10T09:20:55;8.20;99.90
13113;DHT22;6622;49.752;6.100;2022-11-10T09:23:22;8.00;99.90
13113;DHT22;6622;49.752;6.100;2022-11-10T09:25:52;8.10;99.90
13113;DHT22;6622;49.752;6.100;2022-11-10T09:28:18;8.20;99.90
13113;DHT22;6622;49.752;6.100;2022-11-10T09:30:46;8.30;99.90
13113;DHT22;6622;49.752;6.100;2022-11-10T09:33:12;8.30;99.90
13113;DHT22;6622;49.752;6.100;2022-11-10T09:35:39;8.50;99.90
13113;DHT22;6622;49.752;6.100;2022-11-10T09:38:06;8.30;99.90
13113;DHT22;6622;49.752;6.100;2022-11-10T09:45:57;8.50;99.90
13113;DHT22;6622;49.752;6.100;2022-11-10T09:51:06;8.70;99.90
13113;DHT22;6622;49.752;6.100;2022-11-10T09:56:04;8.60;99.90
13113;DHT22;6622;49.752;6.100;2022-11-10T09:58:36;8.70;99.90
13113;DHT22;6622;49.752;6.100;2022-11-10T10:06:44;8.80;99.90
13113;DHT22;6622;49.752;6.100;2022-11-10T10:17:21;8.80;99.90
13113;DHT22;6622;49.752;6.100;2022-11-10T10:19:54;8.80;99.90
13113;DHT22;6622;49.752;6.100;2022-11-10T10:25:03;8.90;99.90
13113;DHT22;6622;49.752;6.100;2022-11-10T10:27:29;8.90;99.90
13113;DHT22;6622;49.752;6.100;2022-11-10T10:29:55;9.00;99.90
13113;DHT22;6622;49.752;6.100;2022-11-10T10:32:22;9.10;99.90
13113;DHT22;6622;49.752;6.100;2022-11-10T10:34:48;9.10;99.90
13113;DHT22;6622;49.752;6.100;2022-11-10T10:37:25;8.90;99.90
13113;DHT22;6622;49.752;6.100;2022-11-10T10:39:52;8.90;99.90
13113;DHT22;6622;49.752;6.100;2022-11-10T10:45:16;9.10;99.90
13113;DHT22;6622;49.752;6.100;2022-11-10T10:47:41;9.00;99.90
13113;DHT22;6622;49.752;6.100;2022-11-10T10:50:33;9.10;99.90
13113;DHT22;6622;49.752;6.100;2022-11-10T10:53:14;9.10;99.90
13113;DHT22;6622;49.752;6.100;2022-11-10T10:58:22;9.30;99.90
13113;DHT22;6622;49.752;6.100;2022-11-10T11:00:51;9.30;99.90
13113;DHT22;6622;49.752;6.100;2022-11-10T11:11:30;9.60;99.90
13113;DHT22;6622;49.752;6.100;2022-11-10T11:14:24;9.60;99.90
13113;DHT22;6622;49.752;6.100;2022-11-10T11:17:03;9.60;99.90
13113;DHT22;6622;49.752;6.100;2022-11-10T11:19:32;9.60;99.90
13113;DHT22;6622;49.752;6.100;2022-11-10T11:24:38;9.70;99.90
13113;DHT22;6622;49.752;6.100;2022-11-10T11:30:04;9.80;99.90
13113;DHT22;6622;49.752;6.100;2022-11-10T11:32:47;9.80;99.90
13113;DHT22;6622;49.752;6.100;2022-11-10T11:35:13;9.80;99.90
13113;DHT22;6622;49.752;6.100;2022-11-10T11:40:47;10.00;99.90
13113;DHT22;6622;49.752;6.100;2022-11-10T11:43:33;10.10;99.90
13113;DHT22;6622;49.752;6.100;2022-11-10T11:48:47;10.30;99.90
13113;DHT22;6622;49.752;6.100;2022-11-10T11:51:17;10.40;99.90
13113;DHT22;6622;49.752;6.100;2022-11-10T11:53:45;10.50;99.90
13113;DHT22;6622;49.752;6.100;2022-11-10T11:56:27;10.50;99.90
13113;DHT22;6622;49.752;6.100;2022-11-10T11:59:47;10.60;99.90
13113;DHT22;6622;49.752;6.100;2022-11-10T12:01:44;10.60;99.90
13113;DHT22;6622;49.752;6.100;2022-11-10T12:04:29;10.70;99.90
13113;DHT22;6622;49.752;6.100;2022-11-10T12:06:53;10.70;99.90
13113;DHT22;6622;49.752;6.100;2022-11-10T12:09:22;10.70;99.90
13113;DHT22;6622;49.752;6.100;2022-11-10T12:12:15;10.80;99.90
13113;DHT22;6622;49.752;6.100;2022-11-10T12:17:31;10.80;99.90
13113;DHT22;6622;49.752;6.100;2022-11-10T12:22:51;10.70;99.90
13113;DHT22;6622;49.752;6.100;2022-11-10T12:27:52;10.80;99.90
13113;DHT22;6622;49.752;6.100;2022-11-10T12:30:16;10.80;99.90
13113;DHT22;6622;49.752;6.100;2022-11-10T12:32:54;10.90;99.90
13113;DHT22;6622;49.752;6.100;2022-11-10T12:37:42;11.30;99.90
13113;DHT22;6622;49.752;6.100;2022-11-10T12:40:22;11.30;99.90
13113;DHT22;6622;49.752;6.100;2022-11-10T12:43:00;11.40;99.90
13113;DHT22;6622;49.752;6.100;2022-11-10T12:45:30;11.40;99.90
13113;DHT22;6622;49.752;6.100;2022-11-10T12:47:51;11.60;99.90
13113;DHT22;6622;49.752;6.100;2022-11-10T12:50:24;11.60;99.90
13113;DHT22;6622;49.752;6.100;2022-11-10T12:52:56;11.70;99.90
13113;DHT22;6622;49.752;6.100;2022-11-10T12:55:26;11.90;99.90
13113;DHT22;6622;49.752;6.100;2022-11-10T12:57:49;11.90;99.90
13113;DHT22;6622;49.752;6.100;2022-11-10T13:00:22;11.90;99.90
13113;DHT22;6622;49.752;6.100;2022-11-10T13:02:48;11.90;99.90
13113;DHT22;6622;49.752;6.100;2022-11-10T13:05:22;11.90;99.90
13113;DHT22;6622;49.752;6.100;2022-11-10T13:07:45;11.90;99.90
13113;DHT22;6622;49.752;6.100;2022-11-10T13:10:23;11.90;99.90
13113;DHT22;6622;49.752;6.100;2022-11-10T13:12:58;11.90;99.90
13113;DHT22;6622;49.752;6.100;2022-11-10T13:18:03;12.00;99.90
13113;DHT22;6622;49.752;6.100;2022-11-10T13:25:50;11.90;99.90
13113;DHT22;6622;49.752;6.100;2022-11-10T13:28:18;11.90;99.90
13113;DHT22;6622;49.752;6.100;2022-11-10T13:30:43;12.00;99.90
13113;DHT22;6622;49.752;6.100;2022-11-10T13:35:50;12.00;99.90
13113;DHT22;6622;49.752;6.100;2022-11-10T13:43:54;12.10;99.90
13113;DHT22;6622;49.752;6.100;2022-11-10T13:49:00;12.10;99.90
13113;DHT22;6622;49.752;6.100;2022-11-10T13:51:31;12.10;99.90
13113;DHT22;6622;49.752;6.100;2022-11-10T13:59:27;12.10;99.90
13113;DHT22;6622;49.752;6.100;2022-11-10T14:01:52;12.20;99.90
13113;DHT22;6622;49.752;6.100;2022-11-10T14:07:01;12.10;99.90
13113;DHT22;6622;49.752;6.100;2022-11-10T14:09:30;12.10;99.90
13113;DHT22;6622;49.752;6.100;2022-11-10T14:11:58;12.00;99.90
13113;DHT22;6622;49.752;6.100;2022-11-10T14:14:26;11.90;99.90
13113;DHT22;6622;49.752;6.100;2022-11-10T14:16:51;11.90;99.90
13113;DHT22;6622;49.752;6.100;2022-11-10T14:19:35;11.80;99.90
13113;DHT22;6622;49.752;6.100;2022-11-10T14:22:19;11.70;99.90
13113;DHT22;6622;49.752;6.100;2022-11-10T14:24:55;11.70;99.90
13113;DHT22;6622;49.752;6.100;2022-11-10T14:27:24;11.60;99.90
13113;DHT22;6622;49.752;6.100;2022-11-10T14:29:47;11.60;99.90
13113;DHT22;6622;49.752;6.100;2022-11-10T14:32:20;11.60;99.90
13113;DHT22;6622;49.752;6.100;2022-11-10T14:34:48;11.50;99.90
13113;DHT22;6622;49.752;6.100;2022-11-10T14:37:23;11.50;99.90
13113;DHT22;6622;49.752;6.100;2022-11-10T14:39:40;11.50;99.90
13113;DHT22;6622;49.752;6.100;2022-11-10T14:42:11;11.40;99.90
13113;DHT22;6622;49.752;6.100;2022-11-10T14:44:34;11.40;99.90
13113;DHT22;6622;49.752;6.100;2022-11-10T14:47:13;11.40;99.90
13113;DHT22;6622;49.752;6.100;2022-11-10T14:49:39;11.40;99.90
13113;DHT22;6622;49.752;6.100;2022-11-10T14:52:07;11.10;99.90
13113;DHT22;6622;49.752;6.100;2022-11-10T14:54:33;11.10;99.90
13113;DHT22;6622;49.752;6.100;2022-11-10T14:56:59;11.10;99.90
13113;DHT22;6622;49.752;6.100;2022-11-10T14:59:26;11.00;99.90
13113;DHT22;6622;49.752;6.100;2022-11-10T15:01:58;11.10;99.90
13113;DHT22;6622;49.752;6.100;2022-11-10T15:04:32;11.00;99.90
13113;DHT22;6622;49.752;6.100;2022-11-10T15:06:50;11.10;99.90
13113;DHT22;6622;49.752;6.100;2022-11-10T15:09:25;11.10;99.90
13113;DHT22;6622;49.752;6.100;2022-11-10T15:11:50;11.10;99.90
13113;DHT22;6622;49.752;6.100;2022-11-10T15:17:02;11.10;99.90
13113;DHT22;6622;49.752;6.100;2022-11-10T15:19:31;11.10;99.90
13113;DHT22;6622;49.752;6.100;2022-11-10T15:21:54;11.10;99.90
13113;DHT22;6622;49.752;6.100;2022-11-10T15:24:21;11.10;99.90
13113;DHT22;6622;49.752;6.100;2022-11-10T15:26:47;11.10;99.90
13113;DHT22;6622;49.752;6.100;2022-11-10T15:29:18;11.10;99.90
13113;DHT22;6622;49.752;6.100;2022-11-10T15:31:43;11.00;99.90
13113;DHT22;6622;49.752;6.100;2022-11-10T15:34:30;11.00;99.90
13113;DHT22;6622;49.752;6.100;2022-11-10T15:37:21;10.90;99.90
13113;DHT22;6622;49.752;6.100;2022-11-10T15:39:46;10.90;99.90
13113;DHT22;6622;49.752;6.100;2022-11-10T15:42:14;11.00;99.90
13113;DHT22;6622;49.752;6.100;2022-11-10T15:44:39;11.00;99.90
13113;DHT22;6622;49.752;6.100;2022-11-10T15:47:08;11.00;99.90
13113;DHT22;6622;49.752;6.100;2022-11-10T15:49:35;11.00;99.90
13113;DHT22;6622;49.752;6.100;2022-11-10T15:52:05;11.00;99.90
13113;DHT22;6622;49.752;6.100;2022-11-10T15:54:32;11.00;99.90
13113;DHT22;6622;49.752;6.100;2022-11-10T15:56:58;11.00;99.90
13113;DHT22;6622;49.752;6.100;2022-11-10T15:59:24;11.00;99.90
13113;DHT22;6622;49.752;6.100;2022-11-10T16:01:51;11.00;99.90
13113;DHT22;6622;49.752;6.100;2022-11-10T16:04:17;11.00;99.90
13113;DHT22;6622;49.752;6.100;2022-11-10T16:06:44;11.00;99.90
13113;DHT22;6622;49.752;6.100;2022-11-10T16:09:11;11.00;99.90
13113;DHT22;6622;49.752;6.100;2022-11-10T16:11:38;11.00;99.90
13113;DHT22;6622;49.752;6.100;2022-11-10T16:14:04;11.00;99.90
13113;DHT22;6622;49.752;6.100;2022-11-10T16:16:31;10.90;99.90
13113;DHT22;6622;49.752;6.100;2022-11-10T16:18:57;10.90;99.90
13113;DHT22;6622;49.752;6.100;2022-11-10T16:21:24;10.80;99.90
13113;DHT22;6622;49.752;6.100;2022-11-10T16:23:51;10.80;99.90
13113;DHT22;6622;49.752;6.100;2022-11-10T16:26:18;10.70;99.90
13113;DHT22;6622;49.752;6.100;2022-11-10T16:28:44;10.70;99.90
13113;DHT22;6622;49.752;6.100;2022-11-10T16:31:12;10.60;99.90
13113;DHT22;6622;49.752;6.100;2022-11-10T16:33:38;10.60;99.90
13113;DHT22;6622;49.752;6.100;2022-11-10T16:36:05;10.50;99.90
13113;DHT22;6622;49.752;6.100;2022-11-10T16:38:31;10.50;99.90
13113;DHT22;6622;49.752;6.100;2022-11-10T16:40:59;10.40;99.90
13113;DHT22;6622;49.752;6.100;2022-11-10T16:43:25;10.40;99.90
13113;DHT22;6622;49.752;6.100;2022-11-10T16:45:52;10.40;99.90
13113;DHT22;6622;49.752;6.100;2022-11-10T16:48:21;10.30;99.90
13113;DHT22;6622;49.752;6.100;2022-11-10T16:50:46;10.30;99.90
13113;DHT22;6622;49.752;6.100;2022-11-10T16:53:14;10.30;99.90
13113;DHT22;6622;49.752;6.100;2022-11-10T16:55:39;10.30;99.90
13113;DHT22;6622;49.752;6.100;2022-11-10T16:58:06;10.20;99.90
13113;DHT22;6622;49.752;6.100;2022-11-10T17:00:32;10.20;99.90
13113;DHT22;6622;49.752;6.100;2022-11-10T17:03:06;10.20;99.90
13113;DHT22;6622;49.752;6.100;2022-11-10T17:05:32;10.20;99.90
13113;DHT22;6622;49.752;6.100;2022-11-10T17:07:58;10.10;99.90
13113;DHT22;6622;49.752;6.100;2022-11-10T17:10:25;10.10;99.90
13113;DHT22;6622;49.752;6.100;2022-11-10T17:12:51;10.10;99.90
13113;DHT22;6622;49.752;6.100;2022-11-10T17:15:18;10.00;99.90
13113;DHT22;6622;49.752;6.100;2022-11-10T17:17:45;10.00;99.90
13113;DHT22;6622;49.752;6.100;2022-11-10T17:20:37;10.00;99.90
13113;DHT22;6622;49.752;6.100;2022-11-10T17:23:04;9.90;99.90
13113;DHT22;6622;49.752;6.100;2022-11-10T17:25:31;9.90;99.90
13113;DHT22;6622;49.752;6.100;2022-11-10T17:27:57;9.90;99.90
13113;DHT22;6622;49.752;6.100;2022-11-10T17:30:24;9.80;99.90
13113;DHT22;6622;49.752;6.100;2022-11-10T17:32:51;9.80;99.90
13113;DHT22;6622;49.752;6.100;2022-11-10T17:35:17;9.80;99.90
13113;DHT22;6622;49.752;6.100;2022-11-10T17:37:47;9.80;99.90
13113;DHT22;6622;49.752;6.100;2022-11-10T17:40:18;9.70;99.90
13113;DHT22;6622;49.752;6.100;2022-11-10T17:42:44;9.70;99.90